createdAt,value
2017-11-05T16:03:13.073Z,92.57
2017-11-05T16:05:40.976Z,93.70
2017-11-05T16:08:08.915Z,93.66
2017-11-05T16:10:36.841Z,93.33
2017-11-05T16:13:05.212Z,93.77
2017-11-05T16:15:33.172Z,93.85
2017-11-05T16:18:01.100Z,93.87
2017-11-05T16:20:29.028Z,94.10
2017-11-05T16:22:57.361Z,93.78
2017-11-05T16:25:25.348Z,94.03
2017-11-05T16:27:53.280Z,94.22
2017-11-05T16:30:21.226Z,94.43
2017-11-05T16:32:49.550Z,94.40
2017-11-05T16:35:17.650Z,94.38
2017-11-05T16:37:45.609Z,94.78
2017-11-05T16:40:13.581Z,95.02
2017-11-05T16:42:41.652Z,95.02
2017-11-05T16:45:09.738Z,95.92
2017-11-05T16:47:38.065Z,96.34
2017-11-05T16:50:05.987Z,96.40
2017-11-05T16:52:34.306Z,95.83
2017-11-05T16:55:02.229Z,96.37
2017-11-05T16:57:30.164Z,96.72
2017-11-05T16:59:58.079Z,97.06
2017-11-05T17:02:26.409Z,96.71
2017-11-05T17:04:54.417Z,97.17
2017-11-05T17:07:22.740Z,96.82
2017-11-05T17:09:50.670Z,96.80
2017-11-05T17:12:19.007Z,96.38
2017-11-05T17:14:46.930Z,96.69
2017-11-05T17:17:14.860Z,96.76
2017-11-05T17:19:42.769Z,96.63
2017-11-05T17:22:10.699Z,97.04
2017-11-05T17:24:38.634Z,97.14
2017-11-05T17:27:06.651Z,97.25
2017-11-05T17:29:34.982Z,97.15
2017-11-05T17:32:02.916Z,96.83
2017-11-05T17:34:30.996Z,96.87
2017-11-05T17:36:58.974Z,97.06
2017-11-05T17:39:26.890Z,97.19
2017-11-05T17:41:54.852Z,96.90
2017-11-05T17:44:22.769Z,96.98
2017-11-05T17:46:50.695Z,96.85
2017-11-05T17:49:18.608Z,96.74
2017-11-05T17:51:46.526Z,96.91
2017-11-05T17:54:14.441Z,96.72
2017-11-05T17:56:42.350Z,96.34
2017-11-05T17:59:10.283Z,96.27
2017-11-05T18:01:38.184Z,96.16
2017-11-05T18:04:06.113Z,96.49
2017-11-05T18:06:34.028Z,96.37
2017-11-05T18:09:01.934Z,96.37
2017-11-05T18:11:29.874Z,95.56
2017-11-05T18:13:57.812Z,95.59
2017-11-05T18:16:25.734Z,96.01
2017-11-05T18:18:54.105Z,96.25
2017-11-05T18:21:22.415Z,96.61
2017-11-05T18:23:50.341Z,96.21
2017-11-05T18:26:18.366Z,96.35
2017-11-05T18:28:46.306Z,96.72
2017-11-05T18:31:14.238Z,96.63
2017-11-05T18:33:42.216Z,96.49
2017-11-05T18:36:10.567Z,95.79
2017-11-05T18:38:38.492Z,96.11
2017-11-05T18:41:06.416Z,96.24
2017-11-05T18:43:34.342Z,96.08
2017-11-05T18:46:02.242Z,96.20
2017-11-05T18:48:30.176Z,96.38
2017-11-05T18:50:58.097Z,96.62
2017-11-05T18:53:26.025Z,96.80
2017-11-05T18:55:54.179Z,97.25
2017-11-05T18:58:22.078Z,97.29
2017-11-05T19:00:50.015Z,97.44
2017-11-05T19:03:17.916Z,97.31
2017-11-05T19:05:45.906Z,97.29
2017-11-05T19:08:13.814Z,97.46
2017-11-05T19:10:41.720Z,97.54
2017-11-05T19:13:09.705Z,97.28
2017-11-05T19:15:37.623Z,97.36
2017-11-05T19:18:05.603Z,97.65
2017-11-05T19:20:33.509Z,97.51
2017-11-05T19:23:01.411Z,97.47
2017-11-05T19:25:29.746Z,97.24
2017-11-05T19:27:57.729Z,97.42
2017-11-05T19:30:25.669Z,97.33
2017-11-05T19:32:53.606Z,97.21
2017-11-05T19:35:21.531Z,96.60
2017-11-05T19:37:49.449Z,96.85
2017-11-05T19:40:17.354Z,96.77
2017-11-05T19:42:45.277Z,96.89
2017-11-05T19:45:13.189Z,97.05
2017-11-05T19:47:41.096Z,96.70
2017-11-05T19:50:09.428Z,96.57
2017-11-05T19:52:37.337Z,97.03
2017-11-05T19:55:05.660Z,96.72
2017-11-05T19:57:33.592Z,96.81
2017-11-05T20:00:01.913Z,96.75
2017-11-05T20:02:29.884Z,96.34
2017-11-05T20:04:57.881Z,96.12
2017-11-05T20:07:25.807Z,95.74
2017-11-05T20:09:53.824Z,95.50
2017-11-05T20:12:21.753Z,95.84
2017-11-05T20:14:50.045Z,95.98
2017-11-05T20:17:17.961Z,96.24
2017-11-05T20:19:46.273Z,96.15
2017-11-05T20:22:14.280Z,96.25
2017-11-05T20:24:42.209Z,95.94
2017-11-05T20:27:10.129Z,96.33
2017-11-05T20:29:38.774Z,96.28
2017-11-05T20:32:07.125Z,96.14
2017-11-05T20:34:36.019Z,95.95
2017-11-05T20:37:04.222Z,96.33
2017-11-05T20:39:32.473Z,96.42
2017-11-05T20:42:00.416Z,96.13
2017-11-05T20:44:28.723Z,95.92
2017-11-05T20:46:56.616Z,96.55
2017-11-05T20:49:24.542Z,95.74
2017-11-05T20:51:52.469Z,95.60
2017-11-05T20:54:20.373Z,95.69
2017-11-05T20:56:48.290Z,95.68
2017-11-05T20:59:16.277Z,95.59
2017-11-05T21:01:44.215Z,95.79
2017-11-05T21:04:12.140Z,95.22
2017-11-05T21:06:40.053Z,95.22
2017-11-05T21:09:07.969Z,95.05
2017-11-05T21:11:36.322Z,95.04
2017-11-05T21:14:04.280Z,95.14
2017-11-05T21:16:32.189Z,95.19
2017-11-05T21:19:00.519Z,94.72
2017-11-05T21:21:28.504Z,95.02
2017-11-05T21:23:56.407Z,95.06
2017-11-05T21:26:24.381Z,94.96
2017-11-05T21:28:52.281Z,94.65
2017-11-05T21:31:20.760Z,94.86
2017-11-05T21:33:48.677Z,95.22
2017-11-05T21:36:16.973Z,94.80
2017-11-05T21:38:44.921Z,94.82
2017-11-05T21:41:13.512Z,95.13
2017-11-05T21:43:41.710Z,95.20
2017-11-05T21:46:09.874Z,95.03
2017-11-05T21:48:38.177Z,95.27
2017-11-05T21:51:06.461Z,94.98
2017-11-05T21:53:34.424Z,94.97
2017-11-05T21:56:02.341Z,95.12
2017-11-05T21:58:31.651Z,94.63
2017-11-05T22:00:59.969Z,94.69
2017-11-05T22:03:27.911Z,94.43
2017-11-05T22:05:55.882Z,94.53
2017-11-05T22:08:23.801Z,94.41
2017-11-05T22:10:51.786Z,94.20
2017-11-05T22:13:20.218Z,93.98
2017-11-05T22:15:48.221Z,93.96
2017-11-05T22:18:16.197Z,93.71
2017-11-05T22:20:44.099Z,93.71
2017-11-05T22:23:12.013Z,93.98
2017-11-05T22:25:39.987Z,93.77
2017-11-05T22:28:07.923Z,93.46
2017-11-05T22:30:35.837Z,93.73
2017-11-05T22:33:04.144Z,93.52
2017-11-05T22:35:32.449Z,93.30
2017-11-05T22:38:00.364Z,93.50
2017-11-05T22:40:28.289Z,93.13
2017-11-05T22:42:56.185Z,93.31
2017-11-05T22:45:24.100Z,93.18
2017-11-05T22:47:52.017Z,93.30
2017-11-05T22:50:20.049Z,93.10
2017-11-05T22:52:47.999Z,93.46
2017-11-05T22:55:15.928Z,93.27
2017-11-05T22:57:43.908Z,93.21
2017-11-05T23:00:13.621Z,93.25
2017-11-05T23:02:41.537Z,92.60
2017-11-05T23:05:09.552Z,92.31
2017-11-05T23:07:37.463Z,92.46
2017-11-05T23:10:05.386Z,92.15
2017-11-05T23:12:33.352Z,92.29
2017-11-05T23:15:01.264Z,92.63
2017-11-05T23:17:29.297Z,92.44
2017-11-05T23:19:57.205Z,92.38
2017-11-05T23:22:25.110Z,92.33
2017-11-05T23:24:53.107Z,92.09
2017-11-05T23:27:21.067Z,91.67
2017-11-05T23:29:48.996Z,91.78
2017-11-05T23:32:17.013Z,92.50
2017-11-05T23:34:44.927Z,92.23
2017-11-05T23:37:12.936Z,91.60
2017-11-05T23:39:40.832Z,91.82
2017-11-05T23:42:09.166Z,91.40
2017-11-05T23:44:37.065Z,91.75
2017-11-05T23:47:05.024Z,91.41
2017-11-05T23:49:32.953Z,91.12
2017-11-05T23:52:01.585Z,91.27
2017-11-05T23:54:29.545Z,90.88
2017-11-05T23:56:57.469Z,91.20
2017-11-05T23:59:25.441Z,91.53
